createdAt,value
2019-01-30T00:01:58.171Z,5.83
2019-01-30T00:04:27.096Z,6.37
2019-01-30T00:06:56.156Z,5.73
2019-01-30T00:09:25.210Z,5.47
2019-01-30T00:11:54.273Z,6.80
2019-01-30T00:14:23.233Z,5.70
2019-01-30T00:16:52.224Z,6.30
2019-01-30T00:19:21.208Z,5.67
2019-01-30T00:21:50.137Z,5.87
2019-01-30T00:24:19.285Z,5.90
2019-01-30T00:26:48.211Z,5.70
2019-01-30T00:29:17.216Z,5.97
2019-01-30T00:31:46.175Z,6.23
2019-01-30T00:34:15.180Z,6.60
2019-01-30T00:36:44.172Z,5.93
2019-01-30T00:39:13.111Z,5.30
2019-01-30T00:41:42.052Z,6.13
2019-01-30T00:44:10.993Z,5.67
2019-01-30T00:46:39.933Z,6.07
2019-01-30T00:49:08.876Z,5.47
2019-01-30T00:51:37.876Z,5.90
2019-01-30T00:54:06.889Z,5.80
2019-01-30T00:56:36.141Z,5.37
2019-01-30T00:59:05.275Z,6.23
2019-01-30T01:01:34.283Z,6.10
2019-01-30T01:04:03.304Z,5.63
2019-01-30T01:06:32.304Z,5.50
2019-01-30T01:09:01.260Z,5.83
2019-01-30T01:11:30.272Z,5.57
2019-01-30T01:13:59.220Z,5.67
2019-01-30T01:16:28.228Z,5.83
2019-01-30T01:18:57.310Z,5.53
2019-01-30T01:21:26.356Z,5.43
2019-01-30T01:23:55.353Z,5.70
2019-01-30T01:26:24.425Z,5.30
2019-01-30T01:28:53.429Z,5.80
2019-01-30T01:31:22.369Z,5.80
2019-01-30T01:33:51.296Z,5.43
2019-01-30T01:36:20.336Z,6.30
2019-01-30T01:38:49.288Z,5.80
2019-01-30T01:41:18.314Z,6.20
2019-01-30T01:43:47.174Z,5.30
2019-01-30T01:46:16.181Z,6.40
2019-01-30T01:48:45.153Z,5.93
2019-01-30T01:51:14.176Z,5.83
2019-01-30T01:53:43.052Z,6.03
2019-01-30T01:56:12.336Z,6.00
2019-01-30T01:58:41.709Z,6.37
2019-01-30T02:01:10.706Z,6.33
2019-01-30T02:03:39.642Z,5.90
2019-01-30T02:06:08.657Z,7.20
2019-01-30T02:08:37.690Z,6.60
2019-01-30T02:11:06.705Z,7.10
2019-01-30T02:13:37.277Z,6.70
2019-01-30T02:16:06.271Z,6.47
2019-01-30T02:18:35.204Z,6.23
2019-01-30T02:21:04.872Z,6.80
2019-01-30T02:23:34.233Z,7.27
2019-01-30T02:26:03.269Z,6.80
2019-01-30T02:28:32.128Z,6.83
2019-01-30T02:31:01.144Z,6.70
2019-01-30T02:33:30.057Z,7.13
2019-01-30T02:35:58.980Z,6.90
2019-01-30T02:38:27.924Z,6.10
2019-01-30T02:40:56.851Z,6.83
2019-01-30T02:43:25.801Z,7.03
2019-01-30T02:45:54.838Z,6.83
2019-01-30T02:48:24.516Z,7.20
2019-01-30T02:50:53.512Z,6.77
2019-01-30T02:53:22.531Z,6.70
2019-01-30T02:55:51.475Z,7.23
2019-01-30T02:58:20.745Z,6.70
2019-01-30T03:00:58.899Z,6.73
2019-01-30T03:03:20.577Z,7.80
2019-01-30T03:05:49.556Z,7.03
2019-01-30T03:08:18.777Z,8.07
2019-01-30T03:11:07.014Z,7.33
2019-01-30T03:13:35.929Z,6.80
2019-01-30T03:16:04.872Z,6.87
2019-01-30T03:18:33.810Z,6.83
2019-01-30T03:21:03.289Z,6.47
2019-01-30T03:23:32.301Z,7.00
2019-01-30T03:26:01.250Z,6.73
2019-01-30T03:28:49.376Z,7.10
2019-01-30T03:31:19.571Z,7.20
2019-01-30T03:33:48.846Z,6.40
2019-01-30T03:36:17.756Z,6.73
2019-01-30T03:38:46.708Z,6.70
2019-01-30T03:41:15.729Z,7.37
2019-01-30T03:43:44.592Z,7.33
2019-01-30T03:46:13.613Z,7.87
2019-01-30T03:48:42.552Z,7.33
2019-01-30T03:51:11.472Z,7.40
2019-01-30T03:53:40.388Z,7.10
2019-01-30T03:56:09.325Z,6.90
2019-01-30T03:58:38.258Z,7.80
2019-01-30T04:01:07.404Z,7.30
2019-01-30T04:03:36.409Z,7.70
2019-01-30T04:06:05.429Z,7.23
2019-01-30T04:08:34.481Z,7.90
2019-01-30T04:11:03.517Z,7.27
2019-01-30T04:13:32.553Z,7.27
2019-01-30T04:16:01.536Z,7.47
2019-01-30T04:18:30.538Z,7.60
2019-01-30T04:20:59.556Z,8.17
2019-01-30T04:23:28.558Z,7.67
2019-01-30T04:25:57.519Z,7.97
2019-01-30T04:28:26.537Z,8.37
2019-01-30T04:30:55.488Z,7.77
2019-01-30T04:33:24.480Z,8.57
2019-01-30T04:35:53.448Z,8.83
2019-01-30T04:38:22.376Z,8.03
2019-01-30T04:40:51.316Z,8.13
2019-01-30T04:43:20.646Z,7.90
2019-01-30T04:45:49.557Z,8.30
2019-01-30T04:48:18.495Z,8.10
2019-01-30T04:50:47.535Z,8.80
2019-01-30T04:53:16.389Z,8.37
2019-01-30T04:55:45.245Z,8.73
2019-01-30T04:58:14.169Z,8.90
2019-01-30T05:00:43.437Z,8.90
2019-01-30T05:03:12.500Z,8.73
2019-01-30T05:05:41.416Z,8.87
2019-01-30T05:08:10.799Z,9.27
2019-01-30T05:10:39.740Z,9.43
2019-01-30T05:13:08.733Z,9.37
2019-01-30T05:15:37.757Z,9.30
2019-01-30T05:18:06.668Z,9.20
2019-01-30T05:20:35.754Z,10.10
2019-01-30T05:23:04.862Z,9.33
2019-01-30T05:25:34.011Z,9.00
2019-01-30T05:28:02.914Z,9.20
2019-01-30T05:30:32.826Z,10.13
2019-01-30T05:33:01.828Z,9.87
2019-01-30T05:35:30.896Z,10.03
2019-01-30T05:37:59.936Z,11.27
2019-01-30T05:40:28.948Z,9.40
2019-01-30T05:42:57.812Z,9.80
2019-01-30T05:45:27.833Z,10.60
2019-01-30T05:47:56.837Z,9.77
2019-01-30T05:50:27.321Z,10.67
2019-01-30T05:52:56.347Z,9.83
2019-01-30T05:55:25.760Z,10.13
2019-01-30T05:57:54.780Z,10.77
2019-01-30T06:00:28.011Z,10.37
2019-01-30T06:02:57.896Z,9.77
2019-01-30T06:05:26.900Z,10.77
2019-01-30T06:07:55.964Z,9.67
2019-01-30T06:10:25.081Z,10.23
2019-01-30T06:13:13.350Z,10.07
2019-01-30T06:15:42.409Z,10.03
2019-01-30T06:18:11.381Z,9.73
2019-01-30T06:20:40.364Z,9.87
2019-01-30T06:23:09.646Z,10.27
2019-01-30T06:25:39.069Z,9.80
2019-01-30T06:28:08.114Z,11.03
2019-01-30T06:30:37.178Z,10.83
2019-01-30T06:33:06.286Z,9.93
2019-01-30T06:35:35.443Z,10.70
2019-01-30T06:38:04.473Z,11.17
2019-01-30T06:40:34.180Z,11.03
2019-01-30T06:43:03.406Z,11.07
2019-01-30T06:45:32.806Z,11.63
2019-01-30T06:48:01.781Z,10.30
2019-01-30T06:50:30.792Z,10.27
2019-01-30T06:52:59.825Z,11.13
2019-01-30T06:55:47.882Z,11.03
2019-01-30T06:58:17.366Z,11.00
2019-01-30T07:00:47.243Z,10.77
2019-01-30T07:03:16.199Z,10.57
2019-01-30T07:05:48.064Z,10.27
2019-01-30T07:08:17.014Z,11.37
2019-01-30T07:10:46.262Z,10.97
2019-01-30T07:13:15.176Z,11.33
2019-01-30T07:15:44.143Z,10.67
2019-01-30T07:18:13.139Z,10.10
2019-01-30T07:20:42.060Z,10.70
2019-01-30T07:23:10.980Z,11.23
2019-01-30T07:25:40.298Z,10.30
2019-01-30T07:28:09.296Z,10.67
2019-01-30T07:30:38.390Z,11.13
2019-01-30T07:33:08.061Z,11.43
2019-01-30T07:35:36.996Z,11.43
2019-01-30T07:38:06.136Z,10.70
2019-01-30T07:40:35.152Z,11.00
2019-01-30T07:43:04.247Z,10.30
2019-01-30T07:45:33.316Z,11.23
2019-01-30T07:48:02.337Z,11.33
2019-01-30T07:50:31.683Z,12.13
2019-01-30T07:53:01.302Z,11.83
2019-01-30T07:55:30.454Z,11.53
2019-01-30T07:58:20.035Z,11.70
2019-01-30T08:00:48.993Z,11.90
2019-01-30T08:03:20.828Z,12.37
2019-01-30T08:05:49.856Z,12.43
2019-01-30T08:08:18.900Z,12.37
2019-01-30T08:10:48.003Z,12.30
2019-01-30T08:13:17.388Z,11.20
2019-01-30T08:15:46.424Z,11.77
2019-01-30T08:18:15.686Z,12.27
2019-01-30T08:20:44.705Z,12.43
2019-01-30T08:23:13.851Z,12.67
2019-01-30T08:25:43.288Z,12.40
2019-01-30T08:28:12.622Z,12.30
2019-01-30T08:30:43.327Z,13.00
2019-01-30T08:33:13.341Z,12.50
2019-01-30T08:35:42.398Z,13.07
2019-01-30T08:38:11.852Z,13.70
2019-01-30T08:40:40.787Z,13.50
2019-01-30T08:43:09.749Z,13.50
2019-01-30T08:45:38.845Z,12.73
2019-01-30T08:48:07.859Z,13.03
2019-01-30T08:50:37.093Z,13.40
2019-01-30T08:53:08.612Z,13.37
2019-01-30T08:55:37.681Z,14.07
2019-01-30T08:58:06.769Z,13.87
2019-01-30T09:00:36.087Z,14.23
2019-01-30T09:03:14.448Z,13.30
2019-01-30T09:05:36.095Z,14.07
2019-01-30T09:08:05.215Z,14.33
2019-01-30T09:10:34.356Z,13.93
2019-01-30T09:13:32.045Z,14.70
2019-01-30T09:16:28.007Z,12.87
2019-01-30T09:19:00.477Z,13.17
2019-01-30T09:21:29.669Z,14.67
2019-01-30T09:23:58.643Z,14.53
2019-01-30T09:26:27.758Z,13.80
2019-01-30T09:28:56.731Z,14.80
2019-01-30T09:31:26.077Z,14.07
2019-01-30T09:33:54.997Z,14.67
2019-01-30T09:36:24.018Z,14.50
2019-01-30T09:38:53.089Z,15.20
2019-01-30T09:41:25.179Z,15.80
2019-01-30T09:43:54.146Z,16.63
2019-01-30T09:46:23.148Z,16.93
2019-01-30T09:48:52.026Z,16.40
2019-01-30T09:51:21.163Z,16.63
2019-01-30T09:53:50.180Z,16.00
2019-01-30T09:56:19.284Z,15.00
2019-01-30T09:58:50.025Z,15.73
2019-01-30T10:01:19.531Z,16.73
2019-01-30T10:04:25.182Z,15.90
2019-01-30T10:06:54.153Z,16.00
2019-01-30T10:09:23.184Z,16.37
2019-01-30T10:11:52.252Z,15.90
2019-01-30T10:14:21.184Z,16.10
2019-01-30T10:16:51.546Z,15.60
2019-01-30T10:19:20.468Z,16.70
2019-01-30T10:21:49.417Z,17.00
2019-01-30T10:24:18.375Z,17.10
2019-01-30T10:26:47.302Z,17.23
2019-01-30T10:29:16.376Z,16.50
2019-01-30T10:32:04.483Z,18.00
2019-01-30T10:34:36.944Z,17.60
2019-01-30T10:37:08.994Z,19.87
2019-01-30T10:39:38.887Z,19.27
2019-01-30T10:45:17.369Z,18.63
2019-01-30T10:47:46.407Z,19.63
2019-01-30T10:50:17.452Z,18.57
2019-01-30T10:52:46.582Z,18.93
2019-01-30T10:55:18.161Z,19.67
2019-01-30T10:57:50.045Z,18.77
2019-01-30T11:00:21.594Z,19.70
2019-01-30T11:02:50.669Z,19.57
2019-01-30T11:05:19.872Z,21.13
2019-01-30T11:07:49.488Z,19.07
2019-01-30T11:10:19.133Z,20.80
2019-01-30T11:12:48.232Z,18.20
2019-01-30T11:15:19.032Z,18.30
2019-01-30T11:17:48.255Z,17.40
2019-01-30T11:20:18.468Z,16.83
2019-01-30T11:22:47.520Z,19.80
2019-01-30T11:25:20.381Z,21.90
2019-01-30T11:27:49.393Z,21.47
2019-01-30T11:30:18.689Z,21.47
2019-01-30T11:32:47.693Z,22.80
2019-01-30T11:35:16.731Z,22.97
2019-01-30T11:37:45.805Z,22.73
2019-01-30T11:40:16.053Z,21.17
2019-01-30T11:42:45.048Z,19.90
2019-01-30T11:45:32.381Z,20.90
2019-01-30T11:48:01.407Z,21.97
2019-01-30T11:50:30.441Z,21.70
2019-01-30T11:52:59.674Z,22.00
2019-01-30T11:55:28.703Z,23.50
2019-01-30T11:57:57.729Z,22.23
2019-01-30T12:00:40.472Z,23.57
2019-01-30T12:03:09.558Z,23.23
2019-01-30T12:05:38.598Z,22.37
2019-01-30T12:08:07.773Z,25.50
2019-01-30T12:10:36.756Z,24.37
2019-01-30T12:13:05.908Z,23.40
2019-01-30T12:15:34.839Z,23.10
2019-01-30T12:18:03.844Z,24.37
2019-01-30T12:20:33.300Z,24.13
2019-01-30T12:23:04.244Z,24.67
2019-01-30T12:25:33.301Z,25.93
2019-01-30T12:28:02.321Z,23.97
2019-01-30T12:30:31.485Z,24.23
2019-01-30T12:33:00.444Z,22.63
2019-01-30T12:35:29.456Z,22.60
2019-01-30T12:37:58.390Z,21.37
2019-01-30T12:40:28.702Z,21.80
2019-01-30T12:42:59.588Z,23.03
2019-01-30T12:45:30.952Z,21.10
2019-01-30T12:47:59.960Z,20.83
2019-01-30T12:50:29.877Z,20.57
2019-01-30T12:52:59.106Z,20.37
2019-01-30T12:55:29.567Z,20.53
2019-01-30T12:57:59.627Z,17.40
2019-01-30T13:00:31.669Z,18.50
2019-01-30T13:03:00.943Z,17.57
2019-01-30T13:05:30.056Z,15.80
2019-01-30T13:07:59.401Z,17.67
2019-01-30T13:10:28.433Z,18.27
2019-01-30T13:12:57.361Z,17.70
2019-01-30T13:15:27.464Z,16.47
2019-01-30T13:17:56.606Z,17.47
2019-01-30T13:20:25.686Z,17.67
2019-01-30T13:22:54.873Z,17.03
2019-01-30T13:25:29.564Z,16.73
2019-01-30T13:27:58.900Z,17.27
2019-01-30T13:30:30.677Z,14.80
2019-01-30T13:33:00.095Z,15.13
2019-01-30T13:35:29.144Z,14.27
2019-01-30T13:37:58.157Z,12.27
2019-01-30T13:40:29.811Z,13.50
2019-01-30T13:42:58.863Z,12.97
2019-01-30T13:45:28.676Z,11.70
2019-01-30T13:47:57.794Z,12.33
2019-01-30T13:50:27.263Z,12.63
2019-01-30T13:52:56.271Z,11.50
2019-01-30T13:55:26.002Z,12.00
2019-01-30T13:57:55.078Z,12.60
2019-01-30T14:00:29.516Z,12.27
2019-01-30T14:02:58.534Z,11.63
2019-01-30T14:05:27.680Z,11.17
2019-01-30T14:07:59.585Z,11.80
2019-01-30T14:10:29.232Z,11.80
2019-01-30T14:12:58.289Z,11.77
2019-01-30T14:15:28.903Z,10.27
2019-01-30T14:17:58.748Z,9.10
2019-01-30T14:20:27.828Z,6.70
2019-01-30T14:22:56.847Z,7.10
2019-01-30T14:25:26.172Z,7.30
2019-01-30T14:27:55.168Z,6.60
2019-01-30T14:30:26.669Z,6.77
2019-01-30T14:32:57.371Z,8.00
2019-01-30T14:35:28.221Z,7.00
2019-01-30T14:37:57.604Z,7.57
2019-01-30T14:40:26.664Z,7.87
2019-01-30T14:42:55.758Z,7.80
2019-01-30T14:45:24.815Z,8.37
2019-01-30T14:47:54.093Z,8.73
2019-01-30T14:50:25.426Z,8.00
2019-01-30T14:52:54.483Z,8.30
2019-01-30T14:55:23.564Z,8.20
2019-01-30T14:57:52.742Z,8.70
2019-01-30T15:00:24.588Z,8.53
2019-01-30T15:02:54.544Z,9.20
2019-01-30T15:05:23.554Z,8.80
2019-01-30T15:07:52.663Z,9.63
2019-01-30T15:10:24.338Z,9.17
2019-01-30T15:12:57.613Z,9.57
2019-01-30T15:15:28.488Z,9.83
2019-01-30T15:17:57.432Z,10.10
2019-01-30T15:20:28.570Z,10.83
2019-01-30T15:22:58.172Z,10.40
2019-01-30T15:25:27.680Z,10.83
2019-01-30T15:27:58.268Z,10.57
2019-01-30T15:30:30.060Z,10.27
2019-01-30T15:32:59.079Z,10.67
2019-01-30T15:35:33.521Z,11.23
2019-01-30T15:38:00.537Z,10.77
2019-01-30T15:40:30.383Z,11.10
2019-01-30T15:42:59.386Z,10.67
2019-01-30T15:45:28.409Z,10.10
2019-01-30T15:47:57.437Z,10.67
2019-01-30T15:50:28.339Z,10.53
2019-01-30T15:52:58.756Z,9.70
2019-01-30T15:55:27.923Z,9.57
2019-01-30T15:58:02.676Z,9.23
2019-01-30T16:00:40.293Z,10.10
2019-01-30T16:03:09.298Z,10.10
2019-01-30T16:05:45.185Z,10.70
2019-01-30T16:08:09.456Z,11.87
2019-01-30T16:10:40.069Z,10.07
2019-01-30T16:13:09.081Z,10.23
2019-01-30T16:15:41.444Z,9.97
2019-01-30T16:18:11.261Z,10.30
2019-01-30T16:20:40.178Z,9.20
2019-01-30T16:23:10.070Z,9.83
2019-01-30T16:25:39.056Z,10.23
2019-01-30T16:28:08.281Z,9.90
2019-01-30T16:30:37.397Z,9.00
2019-01-30T16:33:06.757Z,10.17
2019-01-30T16:35:35.741Z,10.13
2019-01-30T16:38:05.370Z,8.93
2019-01-30T16:40:34.224Z,9.07
2019-01-30T16:43:03.323Z,10.47
2019-01-30T16:45:32.362Z,11.17
2019-01-30T16:48:01.426Z,11.30
2019-01-30T16:50:30.553Z,11.87
2019-01-30T16:52:59.671Z,10.73
2019-01-30T16:55:28.736Z,11.57
2019-01-30T16:57:57.780Z,11.37
2019-01-30T17:00:31.845Z,10.50
2019-01-30T17:03:01.382Z,10.37
2019-01-30T17:05:30.897Z,11.10
2019-01-30T17:07:59.932Z,11.43
2019-01-30T17:10:28.941Z,11.27
2019-01-30T17:12:57.906Z,10.83
2019-01-30T17:15:29.251Z,11.50
2019-01-30T17:17:58.277Z,10.60
2019-01-30T17:20:36.233Z,11.10
2019-01-30T17:23:05.394Z,11.80
2019-01-30T17:25:34.389Z,11.20
2019-01-30T17:28:03.429Z,10.80
2019-01-30T17:30:38.437Z,11.40
2019-01-30T17:33:07.470Z,10.73
2019-01-30T17:35:37.057Z,11.83
2019-01-30T17:38:06.156Z,11.60
2019-01-30T17:40:35.187Z,11.27
2019-01-30T17:43:04.548Z,11.37
2019-01-30T17:45:33.704Z,11.97
2019-01-30T17:48:02.788Z,10.73
2019-01-30T17:50:31.843Z,10.70
2019-01-30T17:53:00.869Z,10.30
2019-01-30T17:55:29.947Z,13.87
2019-01-30T17:57:59.284Z,14.47
2019-01-30T18:00:34.038Z,12.13
2019-01-30T18:03:03.046Z,7.83
2019-01-30T18:05:32.085Z,5.77
2019-01-30T18:08:01.046Z,5.23
2019-01-30T18:10:29.902Z,4.53
2019-01-30T18:12:58.923Z,3.50
2019-01-30T18:15:28.076Z,3.43
2019-01-30T18:17:57.056Z,3.43
2019-01-30T18:20:26.072Z,3.10
2019-01-30T18:22:55.144Z,3.30
2019-01-30T18:25:24.127Z,3.07
2019-01-30T18:27:53.048Z,3.23
2019-01-30T18:30:26.336Z,2.33
2019-01-30T18:32:55.387Z,2.50
2019-01-30T18:35:26.135Z,2.10
2019-01-30T18:37:55.144Z,2.97
2019-01-30T18:40:24.526Z,2.63
2019-01-30T18:42:54.216Z,2.23
2019-01-30T18:45:24.646Z,2.00
2019-01-30T18:47:53.941Z,2.60
2019-01-30T18:50:24.761Z,2.50
2019-01-30T18:52:54.116Z,2.10
2019-01-30T18:55:23.137Z,2.63
2019-01-30T18:57:52.504Z,1.53
2019-01-30T19:00:27.136Z,1.10
2019-01-30T19:02:57.737Z,1.87
2019-01-30T19:05:26.871Z,1.83
2019-01-30T19:07:56.155Z,2.50
2019-01-30T19:10:26.037Z,2.67
2019-01-30T19:12:55.083Z,2.17
2019-01-30T19:15:25.595Z,2.80
2019-01-30T19:17:54.638Z,2.67
2019-01-30T19:20:26.108Z,2.93
2019-01-30T19:22:57.195Z,2.27
2019-01-30T19:25:26.482Z,2.07
2019-01-30T19:27:56.258Z,1.03
2019-01-30T19:30:27.617Z,1.13
2019-01-30T19:32:56.759Z,1.10
2019-01-30T19:35:25.740Z,0.97
2019-01-30T19:37:55.084Z,1.20
2019-01-30T19:40:24.138Z,1.50
2019-01-30T19:42:53.131Z,1.90
2019-01-30T19:45:23.881Z,1.30
2019-01-30T19:47:52.997Z,1.90
2019-01-30T19:50:24.288Z,3.20
2019-01-30T19:52:53.609Z,3.40
2019-01-30T19:55:22.541Z,2.60
2019-01-30T19:57:52.594Z,2.43
2019-01-30T20:00:25.183Z,1.80
2019-01-30T20:02:54.388Z,2.13
2019-01-30T20:05:23.408Z,1.77
2019-01-30T20:07:52.688Z,1.50
2019-01-30T20:10:27.568Z,1.63
2019-01-30T20:12:56.648Z,2.27
2019-01-30T20:15:25.728Z,2.20
2019-01-30T20:17:55.848Z,1.77
2019-01-30T20:20:26.062Z,1.50
2019-01-30T20:22:55.341Z,1.57
2019-01-30T20:25:26.848Z,1.87
2019-01-30T20:27:55.957Z,1.97
2019-01-30T20:30:25.404Z,1.90
2019-01-30T20:32:54.408Z,2.03
2019-01-30T20:35:23.388Z,1.40
2019-01-30T20:37:54.125Z,1.40
2019-01-30T20:40:24.909Z,1.60
2019-01-30T20:42:53.933Z,1.60
2019-01-30T20:45:32.982Z,1.37
2019-01-30T20:47:53.689Z,0.77
2019-01-30T20:50:27.547Z,1.20
2019-01-30T20:52:56.760Z,1.20
2019-01-30T20:55:25.773Z,1.20
2019-01-30T20:57:54.889Z,1.17
2019-01-30T21:00:29.160Z,1.43
2019-01-30T21:02:58.158Z,1.10
2019-01-30T21:05:27.162Z,1.57
2019-01-30T21:07:56.450Z,1.30
2019-01-30T21:10:28.098Z,1.30
2019-01-30T21:12:57.113Z,1.57
2019-01-30T21:15:26.522Z,1.40
2019-01-30T21:17:55.540Z,1.80
2019-01-30T21:20:24.536Z,1.60
2019-01-30T21:22:53.792Z,1.70
2019-01-30T21:25:24.343Z,1.20
2019-01-30T21:27:53.356Z,1.17
2019-01-30T21:30:27.402Z,1.40
2019-01-30T21:32:56.420Z,1.47
2019-01-30T21:35:26.466Z,2.37
2019-01-30T21:37:55.462Z,1.53
2019-01-30T21:40:24.464Z,1.53
2019-01-30T21:42:53.493Z,1.57
2019-01-30T21:45:23.760Z,1.40
2019-01-30T21:47:54.824Z,1.73
2019-01-30T21:50:24.165Z,1.40
2019-01-30T21:52:53.220Z,1.97
2019-01-30T21:55:23.597Z,1.70
2019-01-30T21:57:52.604Z,1.77
2019-01-30T22:00:23.435Z,1.80
2019-01-30T22:02:52.648Z,1.63
2019-01-30T22:05:21.664Z,1.80
2019-01-30T22:08:02.136Z,1.90
2019-01-30T22:10:31.195Z,2.10
2019-01-30T22:13:00.320Z,2.10
2019-01-30T22:15:31.677Z,1.97
2019-01-30T22:18:03.684Z,2.10
2019-01-30T22:20:32.523Z,2.13
2019-01-30T22:23:01.448Z,2.67
2019-01-30T22:25:32.753Z,2.47
2019-01-30T22:28:04.818Z,2.93
2019-01-30T22:30:36.047Z,3.30
2019-01-30T22:33:06.056Z,3.27
2019-01-30T22:35:35.025Z,2.80
2019-01-30T22:38:12.453Z,3.47
2019-01-30T22:40:38.835Z,3.20
2019-01-30T22:43:07.807Z,3.30
2019-01-30T22:45:38.245Z,3.70
2019-01-30T22:48:07.316Z,3.83
2019-01-30T22:50:39.312Z,3.73
2019-01-30T22:53:08.321Z,4.60
2019-01-30T22:55:37.235Z,4.73
2019-01-30T22:58:07.653Z,4.60
2019-01-30T23:01:15.433Z,3.50
2019-01-30T23:04:09.896Z,3.07
2019-01-30T23:06:57.262Z,3.57
2019-01-30T23:09:57.841Z,2.93
2019-01-30T23:12:58.462Z,3.30
2019-01-30T23:16:08.468Z,3.80
2019-01-30T23:18:53.881Z,3.40
2019-01-30T23:21:27.504Z,4.37
2019-01-30T23:24:27.732Z,4.93
2019-01-30T23:27:10.413Z,4.60
2019-01-30T23:30:35.441Z,4.47
2019-01-30T23:33:44.076Z,5.27
2019-01-30T23:36:37.088Z,4.63
2019-01-30T23:39:41.670Z,4.57
2019-01-30T23:43:01.284Z,4.30
2019-01-30T23:45:55.502Z,5.73
2019-01-30T23:49:18.037Z,4.30
2019-01-30T23:52:19.464Z,4.90
2019-01-30T23:55:41.567Z,5.33
2019-01-30T23:58:36.689Z,5.80
